Terminal Aerodrome Forecast
Issued by NWS Green Bay, WI

Home | Current Version | Previous Version | Text Only | Print | Product List | Glossary On
Versions: 1 2 3 4 5 6 7 8 9 10 11 12 13 14 15 16 17 18 19 20
000
FTUS43 KGRB 222332
TAFGRB
TAF
KGRB 222332Z 2300/2324 22006KT 6SM -SHRA SCT025 OVC060
      TEMPO 2300/2303 4SM SHRA BKN025
     FM230300 34003KT P6SM -SHRA OVC050
     FM230900 29006KT P6SM SCT090
     FM231500 28013G22KT P6SM SCT045=

USA.gov is the U.S. government's official web portal to all federal, state and local government web resources and services.